createdAt,value
2023-02-17T00:01:28.401Z,49.61
2023-02-17T00:03:55.593Z,50.24
2023-02-17T00:06:25.938Z,50.62
2023-02-17T00:08:54.571Z,50.33
2023-02-17T00:11:21.271Z,49.88
2023-02-17T00:13:48.344Z,50.09
2023-02-17T00:16:24.175Z,50.34
2023-02-17T00:18:56.808Z,50.26
2023-02-17T00:21:25.633Z,50.71
2023-02-17T00:23:53.301Z,50.58
2023-02-17T00:26:21.527Z,50.19
2023-02-17T00:28:49.327Z,49.70
2023-02-17T00:31:21.800Z,48.80
2023-02-17T00:33:49.503Z,48.63
2023-02-17T00:36:19.037Z,48.54
2023-02-17T00:38:46.589Z,48.45
2023-02-17T00:41:15.408Z,48.49
2023-02-17T00:43:41.934Z,48.01
2023-02-17T00:46:08.925Z,48.27
2023-02-17T00:48:35.955Z,47.99
2023-02-17T00:51:03.181Z,48.70
2023-02-17T00:53:29.871Z,49.12
2023-02-17T00:55:56.574Z,48.37
2023-02-17T00:58:23.717Z,48.71
2023-02-17T01:00:50.608Z,48.52
2023-02-17T01:03:18.441Z,48.76
2023-02-17T01:05:47.454Z,49.12
2023-02-17T01:08:18.530Z,48.08
2023-02-17T01:10:46.653Z,48.42
2023-02-17T01:13:14.506Z,48.26
2023-02-17T01:15:50.326Z,48.26
2023-02-17T01:18:19.118Z,48.34
2023-02-17T01:20:46.040Z,48.76
2023-02-17T01:23:13.318Z,49.07
2023-02-17T01:25:42.700Z,48.38
2023-02-17T01:28:14.072Z,48.08
2023-02-17T01:30:40.871Z,48.54
2023-02-17T01:33:07.652Z,47.08
2023-02-17T01:35:34.828Z,47.65
2023-02-17T01:38:01.795Z,47.35
2023-02-17T01:40:28.691Z,48.27
2023-02-17T01:42:58.198Z,48.37
2023-02-17T01:45:30.554Z,48.68
2023-02-17T01:48:03.453Z,47.71
2023-02-17T01:50:34.533Z,47.31
2023-02-17T01:53:06.418Z,46.48
2023-02-17T01:55:35.128Z,46.45
2023-02-17T01:58:08.131Z,46.00
2023-02-17T02:00:36.669Z,45.97
2023-02-17T02:03:06.730Z,46.44
2023-02-17T02:05:36.550Z,46.55
2023-02-17T02:08:04.686Z,44.99
2023-02-17T02:10:33.742Z,45.92
2023-02-17T02:13:00.618Z,45.92
2023-02-17T02:15:34.757Z,46.69
2023-02-17T02:18:28.974Z,45.56
2023-02-17T02:21:11.819Z,45.87
2023-02-17T02:23:56.761Z,46.54
2023-02-17T02:26:35.622Z,46.07
2023-02-17T02:29:11.455Z,46.64
2023-02-17T02:32:15.919Z,45.96
2023-02-17T02:34:52.795Z,46.50
2023-02-17T02:37:29.720Z,47.48
2023-02-17T02:40:00.411Z,46.76
2023-02-17T02:42:28.804Z,46.78
2023-02-17T02:44:56.434Z,47.37
2023-02-17T02:47:45.661Z,47.32
2023-02-17T02:50:27.692Z,46.72
2023-02-17T02:53:34.530Z,46.99
2023-02-17T02:56:12.602Z,47.50
2023-02-17T02:59:00.143Z,47.66
2023-02-17T03:01:27.266Z,47.27
2023-02-17T03:04:36.630Z,47.62
2023-02-17T03:07:21.349Z,47.63
2023-02-17T03:09:53.793Z,47.81
2023-02-17T03:12:22.411Z,48.24
2023-02-17T03:14:52.971Z,48.68
2023-02-17T03:17:19.815Z,48.20
2023-02-17T03:19:50.022Z,48.05
2023-02-17T03:22:33.708Z,48.10
2023-02-17T03:25:01.230Z,48.01
2023-02-17T03:27:28.402Z,48.41
2023-02-17T03:29:55.732Z,48.04
2023-02-17T03:32:22.628Z,48.32
2023-02-17T03:34:49.552Z,47.86
2023-02-17T03:37:16.316Z,48.53
2023-02-17T03:39:43.081Z,47.94
2023-02-17T03:42:10.770Z,47.67
2023-02-17T03:44:37.471Z,48.19
2023-02-17T03:47:04.311Z,47.83
2023-02-17T03:49:31.077Z,48.42
2023-02-17T03:51:59.398Z,48.23
2023-02-17T03:54:27.271Z,48.08
2023-02-17T03:56:53.996Z,48.08
2023-02-17T03:59:20.571Z,47.85
2023-02-17T04:01:47.409Z,48.13
2023-02-17T04:04:14.583Z,48.19
2023-02-17T04:06:41.116Z,48.02
2023-02-17T04:09:08.078Z,47.51
2023-02-17T04:11:35.047Z,47.24
2023-02-17T04:14:01.839Z,46.58
2023-02-17T04:16:28.611Z,46.75
2023-02-17T04:18:55.324Z,46.66
2023-02-17T04:21:21.906Z,46.71
2023-02-17T04:23:48.695Z,46.75
2023-02-17T04:26:15.558Z,46.43
2023-02-17T04:28:43.150Z,46.51
2023-02-17T04:31:10.094Z,46.90
2023-02-17T04:33:37.861Z,47.29
2023-02-17T04:36:05.986Z,47.54
2023-02-17T04:38:33.385Z,47.81
2023-02-17T04:41:01.020Z,47.67
2023-02-17T04:43:28.058Z,47.06
2023-02-17T04:45:54.719Z,46.79
2023-02-17T04:48:22.460Z,47.03
2023-02-17T04:50:49.226Z,47.01
2023-02-17T04:53:16.106Z,46.63
2023-02-17T04:55:43.341Z,46.62
2023-02-17T04:58:10.211Z,47.25
2023-02-17T05:00:37.297Z,47.70
2023-02-17T05:03:04.028Z,46.93
2023-02-17T05:05:31.366Z,46.94
2023-02-17T05:07:58.501Z,47.32
2023-02-17T05:10:25.101Z,47.04
2023-02-17T05:12:52.684Z,47.28
2023-02-17T05:15:19.435Z,46.77
2023-02-17T05:17:46.246Z,47.17
2023-02-17T05:20:13.254Z,47.22
2023-02-17T05:22:39.970Z,47.27
2023-02-17T05:25:08.441Z,47.47
2023-02-17T05:27:35.734Z,47.26
2023-02-17T05:30:03.200Z,47.03
2023-02-17T05:32:29.881Z,46.75
2023-02-17T05:34:56.514Z,46.90
2023-02-17T05:37:23.288Z,47.20
2023-02-17T05:39:50.162Z,47.14
2023-02-17T05:42:16.882Z,47.62
2023-02-17T05:44:43.658Z,46.96
2023-02-17T05:47:10.410Z,46.56
2023-02-17T05:49:37.065Z,46.76
2023-02-17T05:52:03.872Z,46.51
2023-02-17T05:54:30.525Z,47.20
2023-02-17T05:56:57.235Z,47.59
2023-02-17T05:59:24.313Z,47.18
2023-02-17T06:01:50.848Z,47.21
2023-02-17T06:04:17.728Z,47.27
2023-02-17T06:06:44.631Z,47.72
2023-02-17T06:09:11.407Z,48.18
2023-02-17T06:11:41.594Z,48.35
2023-02-17T06:14:08.936Z,48.58
2023-02-17T06:16:36.852Z,48.17
2023-02-17T06:19:05.118Z,48.07
2023-02-17T06:21:32.045Z,48.77
2023-02-17T06:23:58.575Z,49.02
2023-02-17T06:26:25.540Z,49.27
2023-02-17T06:28:52.323Z,49.25
2023-02-17T06:31:19.096Z,50.15
2023-02-17T06:33:46.573Z,49.88
2023-02-17T06:36:13.365Z,50.71
2023-02-17T06:38:40.235Z,50.98
2023-02-17T06:41:06.876Z,51.69
2023-02-17T06:43:33.526Z,52.44
2023-02-17T06:46:00.101Z,53.20
2023-02-17T06:48:26.908Z,54.73
2023-02-17T06:50:53.751Z,55.11
2023-02-17T06:53:20.247Z,56.19
2023-02-17T06:55:47.024Z,57.51
2023-02-17T06:58:13.649Z,57.61
2023-02-17T07:00:40.459Z,57.38
2023-02-17T07:03:07.337Z,58.07
2023-02-17T07:05:37.542Z,58.46
2023-02-17T07:08:05.393Z,58.84
2023-02-17T07:10:33.579Z,58.21
2023-02-17T07:13:00.238Z,59.13
2023-02-17T07:15:27.123Z,58.75
2023-02-17T07:17:53.912Z,57.45
2023-02-17T07:20:21.976Z,57.30
2023-02-17T07:22:51.627Z,56.75
2023-02-17T07:25:18.361Z,57.89
2023-02-17T07:27:45.178Z,56.66
2023-02-17T07:30:12.238Z,55.74
2023-02-17T07:32:38.917Z,55.35
2023-02-17T07:35:06.308Z,55.85
2023-02-17T07:37:34.051Z,56.06
2023-02-17T07:40:01.135Z,55.47
2023-02-17T07:42:28.317Z,58.20
2023-02-17T07:44:55.081Z,58.10
2023-02-17T07:47:21.902Z,58.43
2023-02-17T07:49:48.714Z,58.41
2023-02-17T07:52:18.618Z,59.82
2023-02-17T07:54:45.618Z,59.57
2023-02-17T07:57:12.389Z,60.42
2023-02-17T07:59:39.101Z,62.28
2023-02-17T08:02:05.803Z,62.62
2023-02-17T08:04:33.141Z,64.60
2023-02-17T08:06:59.859Z,63.69
2023-02-17T08:09:45.011Z,64.30
2023-02-17T08:12:38.308Z,66.17
2023-02-17T08:15:07.718Z,64.20
2023-02-17T08:17:34.551Z,65.08
2023-02-17T08:20:08.011Z,66.12
2023-02-17T08:22:35.364Z,67.66
2023-02-17T08:25:02.032Z,67.52
2023-02-17T08:27:28.714Z,67.52
2023-02-17T08:29:55.985Z,68.74
2023-02-17T08:32:22.899Z,70.52
2023-02-17T08:34:49.813Z,69.91
2023-02-17T08:37:16.473Z,69.75
2023-02-17T08:39:43.102Z,67.78
2023-02-17T08:42:10.438Z,67.90
2023-02-17T08:44:37.371Z,67.79
2023-02-17T08:47:05.624Z,65.97
2023-02-17T08:49:32.778Z,67.08
2023-02-17T08:51:59.922Z,68.22
2023-02-17T08:54:26.604Z,69.60
2023-02-17T08:56:53.304Z,65.73
2023-02-17T08:59:19.916Z,65.66
2023-02-17T09:01:46.758Z,68.03
2023-02-17T09:04:15.079Z,68.08
2023-02-17T09:06:51.189Z,68.41
2023-02-17T09:09:27.001Z,66.64
2023-02-17T09:11:56.229Z,66.33
2023-02-17T09:14:26.427Z,66.64
2023-02-17T09:16:54.782Z,67.59
2023-02-17T09:19:22.321Z,70.81
2023-02-17T09:21:49.491Z,73.17
2023-02-17T09:24:17.774Z,79.41
2023-02-17T09:26:44.691Z,76.51
2023-02-17T09:29:11.346Z,85.22
2023-02-17T09:31:38.483Z,82.95
2023-02-17T09:34:05.736Z,83.77
2023-02-17T09:36:37.905Z,84.76
2023-02-17T09:39:04.865Z,80.99
2023-02-17T09:41:40.958Z,77.18
2023-02-17T09:44:24.523Z,79.62
2023-02-17T09:47:16.154Z,78.04
2023-02-17T09:49:49.776Z,77.73
2023-02-17T09:52:29.836Z,75.08
2023-02-17T09:55:38.809Z,76.73
2023-02-17T09:58:13.103Z,73.66
2023-02-17T10:00:43.210Z,74.44
2023-02-17T10:03:17.878Z,72.58
2023-02-17T10:06:09.694Z,73.55
2023-02-17T10:08:46.458Z,72.86
2023-02-17T10:11:28.552Z,71.71
2023-02-17T10:13:59.600Z,72.28
2023-02-17T10:16:36.225Z,71.35
2023-02-17T10:19:12.201Z,69.58
2023-02-17T10:21:46.087Z,67.07
2023-02-17T10:24:12.880Z,66.01
2023-02-17T10:27:05.972Z,64.17
2023-02-17T10:30:03.526Z,60.33
2023-02-17T10:32:39.206Z,60.74
2023-02-17T10:35:18.276Z,61.92
2023-02-17T10:37:46.793Z,60.88
2023-02-17T10:40:24.071Z,61.84
2023-02-17T10:42:58.095Z,59.38
2023-02-17T10:45:31.296Z,58.31
2023-02-17T10:48:09.708Z,56.61
2023-02-17T10:50:38.187Z,57.51
2023-02-17T10:53:27.302Z,57.17
2023-02-17T10:56:01.212Z,56.52
2023-02-17T10:58:45.914Z,54.21
2023-02-17T11:01:13.790Z,52.40
2023-02-17T11:03:41.078Z,50.54
2023-02-17T11:06:18.956Z,48.73
2023-02-17T11:08:54.230Z,48.40
2023-02-17T11:11:23.998Z,49.86
2023-02-17T11:14:12.089Z,50.42
2023-02-17T11:16:42.220Z,51.09
2023-02-17T11:19:28.898Z,51.33
2023-02-17T11:22:00.696Z,50.85
2023-02-17T11:24:32.634Z,52.15
2023-02-17T11:26:59.209Z,52.36
2023-02-17T11:29:26.454Z,52.56
2023-02-17T11:32:04.215Z,52.41
2023-02-17T11:34:33.525Z,52.11
2023-02-17T11:37:20.545Z,53.28
2023-02-17T11:39:50.147Z,54.14
2023-02-17T11:42:23.409Z,52.70
2023-02-17T11:44:51.750Z,54.40
2023-02-17T11:47:30.636Z,55.18
2023-02-17T11:50:02.936Z,56.84
2023-02-17T11:52:45.427Z,55.14
2023-02-17T11:55:54.386Z,56.32
2023-02-17T11:58:24.046Z,56.89
2023-02-17T12:01:08.658Z,58.62
2023-02-17T12:03:59.410Z,58.61
2023-02-17T12:06:44.130Z,57.90
2023-02-17T12:09:13.871Z,57.92
2023-02-17T12:11:55.976Z,59.11
2023-02-17T12:14:40.484Z,60.51
2023-02-17T12:17:12.543Z,60.68
2023-02-17T12:19:53.471Z,61.68
2023-02-17T12:22:29.141Z,62.34
2023-02-17T12:24:58.648Z,62.49
2023-02-17T12:27:37.071Z,64.22
2023-02-17T12:30:16.853Z,63.46
2023-02-17T12:32:49.465Z,64.40
2023-02-17T12:35:34.632Z,62.34
2023-02-17T12:38:11.059Z,61.86
2023-02-17T12:40:57.784Z,62.51
2023-02-17T12:43:31.138Z,61.20
2023-02-17T12:46:00.429Z,61.59
2023-02-17T12:48:45.104Z,63.33
2023-02-17T12:51:27.634Z,62.22
2023-02-17T12:54:00.422Z,64.88
2023-02-17T12:56:31.385Z,68.37
2023-02-17T12:59:30.894Z,74.98
2023-02-17T13:02:07.731Z,74.94
2023-02-17T13:04:35.631Z,75.25
2023-02-17T13:07:21.378Z,73.63
2023-02-17T13:09:50.494Z,75.39
2023-02-17T13:12:32.033Z,75.82
2023-02-17T13:15:01.761Z,75.10
2023-02-17T13:17:33.141Z,75.43
2023-02-17T13:20:07.863Z,76.26
2023-02-17T13:22:34.696Z,75.55
2023-02-17T13:25:01.505Z,73.75
2023-02-17T13:27:27.986Z,72.46
2023-02-17T13:30:22.619Z,73.75
2023-02-17T13:33:02.006Z,72.99
2023-02-17T13:35:35.718Z,73.67
2023-02-17T13:38:03.235Z,73.05
2023-02-17T13:40:30.012Z,72.21
2023-02-17T13:42:58.080Z,72.14
2023-02-17T13:45:28.967Z,72.06
2023-02-17T13:47:59.473Z,70.09
2023-02-17T13:50:31.699Z,70.96
2023-02-17T13:52:59.039Z,70.83
2023-02-17T13:55:26.216Z,71.92
2023-02-17T13:57:55.713Z,71.90
2023-02-17T14:00:26.756Z,71.05
2023-02-17T14:02:59.229Z,72.70
2023-02-17T14:05:40.312Z,73.30
2023-02-17T14:08:12.011Z,73.16
2023-02-17T14:10:38.586Z,73.51
2023-02-17T14:13:09.170Z,73.64
2023-02-17T14:15:36.008Z,73.94
2023-02-17T14:18:16.508Z,72.67
2023-02-17T14:20:43.179Z,73.42
2023-02-17T14:23:12.643Z,73.60
2023-02-17T14:25:46.738Z,71.77
2023-02-17T14:28:21.643Z,71.15
2023-02-17T14:30:48.974Z,70.00
2023-02-17T14:33:17.322Z,71.38
2023-02-17T14:35:53.400Z,69.23
2023-02-17T14:38:25.339Z,72.04
2023-02-17T14:40:53.543Z,70.00
2023-02-17T14:43:20.372Z,71.18
2023-02-17T14:45:47.399Z,71.34
2023-02-17T14:48:14.540Z,73.08
2023-02-17T14:50:45.113Z,73.36
2023-02-17T14:53:18.452Z,71.57
2023-02-17T14:55:49.640Z,73.41
2023-02-17T14:58:20.645Z,72.91
2023-02-17T15:00:51.012Z,72.77
2023-02-17T15:03:18.350Z,73.69
2023-02-17T15:05:45.501Z,74.94
2023-02-17T15:08:17.575Z,73.72
2023-02-17T15:10:44.773Z,75.15
2023-02-17T15:13:15.149Z,75.97
2023-02-17T15:15:45.208Z,74.54
2023-02-17T15:18:12.498Z,74.10
2023-02-17T15:20:42.294Z,72.23
2023-02-17T15:23:14.800Z,73.37
2023-02-17T15:25:42.081Z,74.69
2023-02-17T15:28:13.324Z,76.07
2023-02-17T15:30:40.102Z,74.84
2023-02-17T15:33:12.384Z,74.37
2023-02-17T15:35:40.557Z,76.80
2023-02-17T15:38:12.046Z,78.83
2023-02-17T15:40:39.628Z,77.95
2023-02-17T15:43:06.581Z,77.84
2023-02-17T15:45:33.799Z,80.12
2023-02-17T15:48:07.698Z,80.99
2023-02-17T15:50:34.456Z,79.74
2023-02-17T15:53:01.290Z,79.68
2023-02-17T15:55:28.951Z,82.27
2023-02-17T15:58:03.496Z,85.65
2023-02-17T16:00:35.714Z,85.01
2023-02-17T16:03:02.864Z,84.39
2023-02-17T16:05:30.399Z,86.28
2023-02-17T16:07:57.198Z,87.25
2023-02-17T16:10:29.518Z,88.98
2023-02-17T16:12:57.855Z,87.97
2023-02-17T16:15:25.866Z,89.73
2023-02-17T16:17:52.901Z,90.21
2023-02-17T16:20:23.523Z,91.65
2023-02-17T16:22:51.094Z,93.22
2023-02-17T16:25:19.563Z,95.07
2023-02-17T16:27:49.116Z,96.01
2023-02-17T16:30:18.729Z,97.27
2023-02-17T16:32:46.023Z,97.56
2023-02-17T16:35:14.642Z,97.45
2023-02-17T16:37:41.887Z,98.69
2023-02-17T16:40:17.029Z,98.79
2023-02-17T16:42:43.830Z,99.33
2023-02-17T16:45:15.376Z,100.00
2023-02-17T16:47:46.626Z,98.59
2023-02-17T16:50:30.678Z,99.27
2023-02-17T16:53:01.715Z,96.31
2023-02-17T16:55:31.884Z,97.66
2023-02-17T16:57:58.617Z,97.89
2023-02-17T17:00:28.149Z,98.18
2023-02-17T17:02:54.765Z,99.21
2023-02-17T17:05:21.692Z,99.66
2023-02-17T17:07:49.098Z,99.28
2023-02-17T17:10:18.881Z,97.83
2023-02-17T17:12:46.626Z,97.59
2023-02-17T17:15:16.417Z,96.94
2023-02-17T17:18:01.776Z,96.38
2023-02-17T17:20:34.172Z,96.85
2023-02-17T17:23:04.541Z,96.85
2023-02-17T17:25:34.603Z,96.21
2023-02-17T17:28:01.381Z,94.54
2023-02-17T17:30:31.632Z,95.19
2023-02-17T17:32:59.153Z,95.03
2023-02-17T17:35:26.814Z,97.25
2023-02-17T17:37:53.390Z,96.82
2023-02-17T17:40:26.212Z,96.46
2023-02-17T17:42:53.588Z,95.99
2023-02-17T17:45:24.417Z,96.47
2023-02-17T17:47:51.573Z,96.91
2023-02-17T17:50:24.828Z,94.90
2023-02-17T17:52:52.357Z,96.94
2023-02-17T17:55:18.986Z,98.28
2023-02-17T17:57:45.819Z,97.55
2023-02-17T18:00:15.286Z,98.49
2023-02-17T18:02:42.762Z,97.10
2023-02-17T18:05:09.669Z,97.29
2023-02-17T18:07:38.577Z,97.00
2023-02-17T18:10:07.399Z,96.17
2023-02-17T18:12:35.282Z,96.08
2023-02-17T18:15:04.418Z,95.87
2023-02-17T18:17:37.424Z,96.75
2023-02-17T18:20:05.991Z,94.10
2023-02-17T18:22:32.706Z,95.79
2023-02-17T18:24:59.652Z,95.06
2023-02-17T18:27:26.328Z,96.12
2023-02-17T18:29:56.640Z,94.53
2023-02-17T18:32:24.427Z,95.58
2023-02-17T18:34:51.086Z,94.63
2023-02-17T18:37:18.069Z,93.29
2023-02-17T18:42:28.174Z,94.59
2023-02-17T18:44:56.079Z,95.18
2023-02-17T18:47:23.325Z,94.95
2023-02-17T18:49:50.215Z,95.34
2023-02-17T18:52:17.014Z,94.50
2023-02-17T18:54:44.905Z,95.19
2023-02-17T18:57:12.112Z,96.17
2023-02-17T18:59:39.316Z,96.70
2023-02-17T19:02:07.647Z,96.56
2023-02-17T19:04:34.600Z,96.13
2023-02-17T19:07:03.561Z,96.28
2023-02-17T19:10:23.642Z,95.77
2023-02-17T19:12:44.923Z,95.98
2023-02-17T19:15:14.026Z,98.06
2023-02-17T19:17:43.365Z,98.31
2023-02-17T19:20:10.631Z,98.11
2023-02-17T19:22:38.008Z,99.74
2023-02-17T19:25:05.350Z,97.79
2023-02-17T19:27:31.955Z,98.47
2023-02-17T19:29:58.782Z,100.00
2023-02-17T19:32:25.505Z,100.00
2023-02-17T19:34:52.390Z,100.00
2023-02-17T19:37:19.212Z,100.00
2023-02-17T19:39:45.905Z,100.00
2023-02-17T19:42:12.576Z,100.00
2023-02-17T19:44:39.220Z,100.00
2023-02-17T19:47:05.890Z,100.00
2023-02-17T19:49:32.471Z,100.00
2023-02-17T19:51:59.284Z,100.00
2023-02-17T19:54:26.035Z,100.00
2023-02-17T19:56:52.954Z,100.00
2023-02-17T19:59:19.786Z,100.00
2023-02-17T20:01:46.446Z,100.00
2023-02-17T20:04:13.439Z,100.00
2023-02-17T20:06:45.797Z,100.00
2023-02-17T20:09:18.789Z,100.00
2023-02-17T20:11:48.121Z,100.00
2023-02-17T20:14:15.068Z,100.00
2023-02-17T20:16:41.659Z,100.00
2023-02-17T20:19:08.546Z,100.00
2023-02-17T20:21:38.291Z,100.00
2023-02-17T20:24:05.650Z,100.00
2023-02-17T20:26:37.764Z,100.00
2023-02-17T20:29:04.534Z,100.00
2023-02-17T20:31:31.311Z,100.00
2023-02-17T20:33:58.034Z,100.00
2023-02-17T20:36:25.266Z,100.00
2023-02-17T20:38:51.960Z,100.00
2023-02-17T20:41:22.095Z,100.00
2023-02-17T20:43:50.550Z,100.00
2023-02-17T20:46:27.877Z,100.00
2023-02-17T20:48:55.646Z,100.00
2023-02-17T20:51:22.775Z,100.00
2023-02-17T20:53:49.729Z,100.00
2023-02-17T20:56:19.321Z,100.00
2023-02-17T20:58:49.428Z,100.00
2023-02-17T21:01:16.690Z,100.00
2023-02-17T21:03:43.700Z,100.00
2023-02-17T21:06:20.044Z,100.00
2023-02-17T21:08:49.703Z,100.00
2023-02-17T21:11:16.351Z,100.00
2023-02-17T21:13:43.073Z,100.00
2023-02-17T21:16:15.012Z,98.81
2023-02-17T21:18:42.066Z,98.40
2023-02-17T21:21:08.627Z,97.89
2023-02-17T21:23:35.391Z,99.30
2023-02-17T21:26:02.173Z,96.84
2023-02-17T21:28:28.944Z,97.14
2023-02-17T21:30:55.638Z,97.57
2023-02-17T21:33:22.307Z,96.22
2023-02-17T21:35:48.979Z,96.01
2023-02-17T21:38:16.935Z,95.21
2023-02-17T21:40:43.493Z,94.82
2023-02-17T21:43:47.425Z,94.91
2023-02-17T21:46:14.033Z,97.23
2023-02-17T21:48:40.567Z,96.46
2023-02-17T21:51:09.789Z,96.44
2023-02-17T21:53:36.791Z,97.68
2023-02-17T21:56:04.819Z,99.13
2023-02-17T21:58:32.360Z,97.40
2023-02-17T22:00:59.655Z,97.68
2023-02-17T22:03:26.678Z,96.95
2023-02-17T22:05:53.936Z,97.61
2023-02-17T22:08:20.626Z,98.38
2023-02-17T22:10:47.987Z,98.63
2023-02-17T22:13:14.658Z,98.19
2023-02-17T22:15:41.510Z,100.00
2023-02-17T22:18:08.075Z,97.65
2023-02-17T22:20:36.069Z,97.76
2023-02-17T22:23:02.616Z,97.60
2023-02-17T22:25:31.239Z,96.83
2023-02-17T22:27:57.891Z,96.88
2023-02-17T22:30:24.737Z,95.71
2023-02-17T22:32:51.465Z,96.06
2023-02-17T22:35:20.842Z,97.07
2023-02-17T22:37:47.654Z,97.88
2023-02-17T22:40:14.594Z,98.88
2023-02-17T22:42:41.158Z,99.04
2023-02-17T22:45:08.053Z,99.61
2023-02-17T22:47:34.608Z,100.00
2023-02-17T22:50:01.250Z,100.00
2023-02-17T22:52:28.061Z,100.00
2023-02-17T22:54:55.182Z,100.00
2023-02-17T22:57:21.738Z,100.00
2023-02-17T22:59:48.481Z,100.00
2023-02-17T23:02:15.160Z,100.00
2023-02-17T23:04:41.949Z,100.00
2023-02-17T23:07:08.905Z,100.00
2023-02-17T23:09:35.625Z,100.00
2023-02-17T23:12:02.486Z,100.00
2023-02-17T23:14:33.639Z,100.00
2023-02-17T23:17:03.459Z,100.00
2023-02-17T23:19:30.649Z,100.00
2023-02-17T23:22:04.732Z,100.00
2023-02-17T23:24:31.674Z,100.00
2023-02-17T23:27:00.683Z,100.00
2023-02-17T23:29:29.086Z,100.00
2023-02-17T23:31:55.824Z,100.00
2023-02-17T23:34:22.825Z,100.00
2023-02-17T23:36:49.449Z,100.00
2023-02-17T23:39:16.950Z,100.00
2023-02-17T23:41:43.981Z,100.00
2023-02-17T23:44:12.750Z,100.00
2023-02-17T23:46:41.233Z,100.00
2023-02-17T23:49:08.704Z,100.00
2023-02-17T23:51:35.224Z,100.00
2023-02-17T23:54:02.012Z,100.00
2023-02-17T23:56:31.988Z,100.00
2023-02-17T23:58:58.941Z,100.00
